createdAt,value
2018-12-07T00:01:05.537Z,2.95
2018-12-07T00:03:40.166Z,2.40
2018-12-07T00:06:14.675Z,2.60
2018-12-07T00:08:49.190Z,3.92
2018-12-07T00:11:23.705Z,2.42
2018-12-07T00:13:58.294Z,3.77
2018-12-07T00:16:32.537Z,3.02
2018-12-07T00:19:06.989Z,2.92
2018-12-07T00:21:41.332Z,4.15
2018-12-07T00:24:15.687Z,3.00
2018-12-07T00:26:50.041Z,2.70
2018-12-07T00:29:24.456Z,2.98
2018-12-07T00:31:58.989Z,2.80
2018-12-07T00:34:33.374Z,2.65
2018-12-07T00:37:07.703Z,2.60
2018-12-07T00:39:42.046Z,2.25
2018-12-07T00:42:16.334Z,2.33
2018-12-07T00:44:50.748Z,2.55
2018-12-07T00:47:25.035Z,2.05
2018-12-07T00:49:59.379Z,2.65
2018-12-07T00:52:33.721Z,2.42
2018-12-07T00:55:18.452Z,2.00
2018-12-07T00:57:52.965Z,2.30
2018-12-07T01:00:27.364Z,1.67
2018-12-07T01:03:01.778Z,1.50
2018-12-07T01:05:36.328Z,1.22
2018-12-07T01:08:10.832Z,1.40
2018-12-07T01:10:45.154Z,1.10
2018-12-07T01:13:19.488Z,1.40
2018-12-07T01:15:53.813Z,1.05
2018-12-07T01:18:28.090Z,1.77
2018-12-07T01:21:02.532Z,1.50
2018-12-07T01:23:36.909Z,10.05
2018-12-07T01:26:11.276Z,1.60
2018-12-07T01:28:45.782Z,1.30
2018-12-07T01:31:20.365Z,1.52
2018-12-07T01:33:54.832Z,1.20
2018-12-07T01:36:29.285Z,1.87
2018-12-07T01:39:05.707Z,1.05
2018-12-07T01:41:40.064Z,1.32
2018-12-07T01:44:14.440Z,1.40
2018-12-07T01:46:48.761Z,0.98
2018-12-07T01:49:23.068Z,1.10
2018-12-07T01:51:57.474Z,1.22
2018-12-07T01:54:31.901Z,1.40
2018-12-07T01:57:06.577Z,1.37
2018-12-07T01:59:40.936Z,1.07
2018-12-07T02:02:15.181Z,1.40
2018-12-07T02:04:49.537Z,1.45
2018-12-07T02:07:30.484Z,1.35
2018-12-07T02:10:05.781Z,1.05
2018-12-07T02:12:40.326Z,1.37
2018-12-07T02:15:14.749Z,1.72
2018-12-07T02:17:49.105Z,1.67
2018-12-07T02:20:23.506Z,4.80
2018-12-07T02:22:57.815Z,2.75
2018-12-07T02:25:32.254Z,1.30
2018-12-07T02:28:06.788Z,1.37
2018-12-07T02:30:41.259Z,1.00
2018-12-07T02:33:15.992Z,1.07
2018-12-07T02:35:50.297Z,1.40
2018-12-07T02:38:24.754Z,1.15
2018-12-07T02:40:59.164Z,1.00
2018-12-07T02:43:33.705Z,1.05
2018-12-07T02:46:08.169Z,1.30
2018-12-07T02:48:42.639Z,0.80
2018-12-07T02:51:16.984Z,1.05
2018-12-07T02:53:51.457Z,1.20
2018-12-07T02:56:25.943Z,1.25
2018-12-07T02:59:00.319Z,1.20
2018-12-07T03:01:34.692Z,1.10
2018-12-07T03:04:09.143Z,1.17
2018-12-07T03:06:43.674Z,0.93
2018-12-07T03:09:18.081Z,1.00
2018-12-07T03:11:52.376Z,1.10
2018-12-07T03:14:26.821Z,0.88
2018-12-07T03:17:01.113Z,1.10
2018-12-07T03:19:35.498Z,1.20
2018-12-07T03:22:09.848Z,1.98
2018-12-07T03:24:44.449Z,3.05
2018-12-07T03:27:18.800Z,1.20
2018-12-07T03:29:53.093Z,0.90
2018-12-07T03:32:27.394Z,1.00
2018-12-07T03:35:01.938Z,0.93
2018-12-07T03:37:36.342Z,1.20
2018-12-07T03:40:10.781Z,0.90
2018-12-07T03:42:45.357Z,1.15
2018-12-07T03:45:19.801Z,1.22
2018-12-07T03:47:54.290Z,1.05
2018-12-07T03:50:28.701Z,1.05
2018-12-07T03:53:02.996Z,1.00
2018-12-07T03:55:37.562Z,1.10
2018-12-07T03:58:11.925Z,1.12
2018-12-07T04:00:46.327Z,0.93
2018-12-07T04:03:20.683Z,1.10
2018-12-07T04:05:55.113Z,1.30
2018-12-07T04:08:29.420Z,1.15
2018-12-07T04:11:03.894Z,1.10
2018-12-07T04:13:38.348Z,0.90
2018-12-07T04:16:12.821Z,1.07
2018-12-07T04:18:47.350Z,1.30
2018-12-07T04:21:22.316Z,1.00
2018-12-07T04:23:56.616Z,2.20
2018-12-07T04:26:31.008Z,4.28
2018-12-07T04:29:08.972Z,1.30
2018-12-07T04:31:43.437Z,1.35
2018-12-07T04:34:18.291Z,1.60
2018-12-07T04:36:52.614Z,1.50
2018-12-07T04:39:26.965Z,1.67
2018-12-07T04:42:01.417Z,1.45
2018-12-07T04:44:35.647Z,1.35
2018-12-07T04:47:10.141Z,1.60
2018-12-07T04:49:44.385Z,1.90
2018-12-07T04:52:18.793Z,1.42
2018-12-07T04:54:53.160Z,2.55
2018-12-07T04:57:27.509Z,2.55
2018-12-07T05:00:01.989Z,2.08
2018-12-07T05:02:36.488Z,1.70
2018-12-07T05:05:11.305Z,1.32
2018-12-07T05:07:45.737Z,1.30
2018-12-07T05:10:20.186Z,2.00
2018-12-07T05:12:55.481Z,1.90
2018-12-07T05:15:29.873Z,1.52
2018-12-07T05:18:04.406Z,2.10
2018-12-07T05:20:38.677Z,1.92
2018-12-07T05:23:13.072Z,2.58
2018-12-07T05:25:47.404Z,4.05
2018-12-07T05:28:21.894Z,2.45
2018-12-07T05:30:56.223Z,1.80
2018-12-07T05:33:30.569Z,5.08
2018-12-07T05:36:04.946Z,3.30
2018-12-07T05:38:39.311Z,3.17
2018-12-07T05:41:13.915Z,3.40
2018-12-07T05:43:55.445Z,3.25
2018-12-07T05:46:29.843Z,3.33
2018-12-07T05:49:04.362Z,4.42
2018-12-07T05:51:38.985Z,4.17
2018-12-07T05:54:13.517Z,4.20
2018-12-07T05:56:47.984Z,4.90
2018-12-07T05:59:23.850Z,5.15
2018-12-07T06:01:58.556Z,6.30
2018-12-07T06:04:32.920Z,4.83
2018-12-07T06:07:07.375Z,5.60
2018-12-07T06:09:41.700Z,4.47
2018-12-07T06:12:15.995Z,6.08
2018-12-07T06:14:50.430Z,6.03
2018-12-07T06:17:24.839Z,5.90
2018-12-07T06:19:59.272Z,4.72
2018-12-07T06:22:33.589Z,5.72
2018-12-07T06:25:08.209Z,5.10
2018-12-07T06:27:42.590Z,3.60
2018-12-07T06:30:16.951Z,2.65
2018-12-07T06:32:51.370Z,3.55
2018-12-07T06:35:25.733Z,2.80
2018-12-07T06:38:00.046Z,2.40
2018-12-07T06:40:34.422Z,2.40
2018-12-07T06:43:08.885Z,3.72
2018-12-07T06:45:43.297Z,2.65
2018-12-07T06:48:17.677Z,2.92
2018-12-07T06:50:52.181Z,3.02
2018-12-07T06:53:26.544Z,2.47
2018-12-07T06:56:00.918Z,2.12
2018-12-07T06:58:35.309Z,2.70
2018-12-07T07:01:09.797Z,2.90
2018-12-07T07:03:44.229Z,2.85
2018-12-07T07:06:18.557Z,4.08
2018-12-07T07:08:52.789Z,4.65
2018-12-07T07:11:27.186Z,4.15
2018-12-07T07:14:01.810Z,3.62
2018-12-07T07:16:36.217Z,3.75
2018-12-07T07:19:10.632Z,2.40
2018-12-07T07:21:44.963Z,2.47
2018-12-07T07:24:19.423Z,1.77
2018-12-07T07:26:53.758Z,3.35
2018-12-07T07:29:28.196Z,2.75
2018-12-07T07:32:02.683Z,2.60
2018-12-07T07:34:37.045Z,2.10
2018-12-07T07:37:11.310Z,1.30
2018-12-07T07:39:45.920Z,6.70
2018-12-07T07:42:20.300Z,2.85
2018-12-07T07:44:54.569Z,2.77
2018-12-07T07:47:28.946Z,2.60
2018-12-07T07:50:03.398Z,1.95
2018-12-07T07:52:37.793Z,3.12
2018-12-07T07:55:12.253Z,2.37
2018-12-07T07:57:46.610Z,2.27
2018-12-07T08:00:20.959Z,2.37
2018-12-07T08:02:55.289Z,3.20
2018-12-07T08:05:29.594Z,5.67
2018-12-07T08:08:04.106Z,8.40
2018-12-07T08:10:38.389Z,9.80
2018-12-07T08:13:12.842Z,14.13
2018-12-07T08:15:47.398Z,19.05
2018-12-07T08:18:21.921Z,18.35
2018-12-07T08:20:56.346Z,13.55
2018-12-07T08:23:30.761Z,8.00
2018-12-07T08:26:05.036Z,12.03
2018-12-07T08:28:39.552Z,3.85
2018-12-07T08:31:13.997Z,1.40
2018-12-07T08:33:48.456Z,1.35
2018-12-07T08:36:22.861Z,1.32
2018-12-07T08:38:57.229Z,1.50
2018-12-07T08:41:31.665Z,2.25
2018-12-07T08:44:06.272Z,3.40
2018-12-07T08:46:40.770Z,3.70
2018-12-07T08:49:17.321Z,54.13
2018-12-07T08:51:52.008Z,62.67
2018-12-07T08:54:26.343Z,11.30
2018-12-07T08:57:00.876Z,5.65
2018-12-07T08:59:35.184Z,3.90
2018-12-07T09:02:09.659Z,4.17
2018-12-07T09:04:44.047Z,3.33
2018-12-07T09:07:18.490Z,3.42
2018-12-07T09:09:53.028Z,2.80
2018-12-07T09:12:27.597Z,2.17
2018-12-07T09:15:02.098Z,1.70
2018-12-07T09:17:36.515Z,2.12
2018-12-07T09:20:10.907Z,2.92
2018-12-07T09:22:45.610Z,1.80
2018-12-07T09:25:19.988Z,3.40
2018-12-07T09:27:54.293Z,2.87
2018-12-07T09:30:28.739Z,1.65
2018-12-07T09:33:03.333Z,1.15
2018-12-07T09:35:38.025Z,1.70
2018-12-07T09:38:13.248Z,1.90
2018-12-07T09:40:47.898Z,4.17
2018-12-07T09:43:22.391Z,2.20
2018-12-07T09:45:56.685Z,1.37
2018-12-07T09:48:31.033Z,1.45
2018-12-07T09:51:05.409Z,1.45
2018-12-07T09:53:39.884Z,1.00
2018-12-07T09:56:14.410Z,0.93
2018-12-07T09:58:48.872Z,0.70
2018-12-07T10:01:23.363Z,0.98
2018-12-07T10:03:57.978Z,0.72
2018-12-07T10:06:32.557Z,1.15
2018-12-07T10:09:08.117Z,1.60
2018-12-07T10:11:42.537Z,1.95
2018-12-07T10:14:16.977Z,2.02
2018-12-07T10:16:51.312Z,2.77
2018-12-07T10:19:25.596Z,4.40
2018-12-07T10:21:59.914Z,6.20
2018-12-07T10:24:34.211Z,6.40
2018-12-07T10:27:08.796Z,7.05
2018-12-07T10:29:43.285Z,6.00
2018-12-07T10:32:17.759Z,3.75
2018-12-07T10:34:52.066Z,2.30
2018-12-07T10:37:27.612Z,1.90
2018-12-07T10:40:02.092Z,3.22
2018-12-07T10:42:36.440Z,4.37
2018-12-07T10:45:10.872Z,2.62
2018-12-07T10:47:50.248Z,1.35
2018-12-07T10:50:21.737Z,1.50
2018-12-07T10:52:56.383Z,2.70
2018-12-07T10:55:30.797Z,2.72
2018-12-07T10:58:05.203Z,2.45
2018-12-07T11:00:45.049Z,1.80
2018-12-07T11:03:24.938Z,1.27
2018-12-07T11:06:04.720Z,1.40
2018-12-07T11:08:44.700Z,1.67
2018-12-07T11:11:24.770Z,0.93
2018-12-07T11:14:04.629Z,1.15
2018-12-07T11:16:44.396Z,0.90
2018-12-07T11:19:24.239Z,1.02
2018-12-07T11:22:04.081Z,0.95
2018-12-07T11:24:43.972Z,1.35
2018-12-07T11:27:24.063Z,2.75
2018-12-07T11:30:04.189Z,1.05
2018-12-07T11:32:43.994Z,1.10
2018-12-07T11:35:27.269Z,1.20
2018-12-07T11:38:01.733Z,1.37
2018-12-07T11:40:36.073Z,1.25
2018-12-07T11:43:10.557Z,2.17
2018-12-07T11:45:44.949Z,2.05
2018-12-07T11:48:19.344Z,1.40
2018-12-07T11:50:53.905Z,1.50
2018-12-07T11:53:28.285Z,1.00
2018-12-07T11:56:02.710Z,2.47
2018-12-07T11:58:37.135Z,2.10
2018-12-07T12:01:11.528Z,1.60
2018-12-07T12:03:45.936Z,1.95
2018-12-07T12:06:20.409Z,2.70
2018-12-07T12:08:54.886Z,1.82
2018-12-07T12:11:29.501Z,2.30
2018-12-07T12:14:04.160Z,3.22
2018-12-07T12:16:38.564Z,1.98
2018-12-07T12:19:12.882Z,1.10
2018-12-07T12:21:47.384Z,1.30
2018-12-07T12:24:21.782Z,1.42
2018-12-07T12:26:56.268Z,1.60
2018-12-07T12:29:30.670Z,1.40
2018-12-07T12:32:05.231Z,1.80
2018-12-07T12:34:39.641Z,4.22
2018-12-07T12:37:14.001Z,1.42
2018-12-07T12:39:48.445Z,3.87
2018-12-07T12:42:22.921Z,1.90
2018-12-07T12:44:57.571Z,1.20
2018-12-07T12:47:31.936Z,1.42
2018-12-07T12:50:10.762Z,1.42
2018-12-07T12:52:45.200Z,1.05
2018-12-07T12:55:19.660Z,2.27
2018-12-07T12:57:54.135Z,4.12
2018-12-07T13:00:28.729Z,7.92
2018-12-07T13:03:03.133Z,9.28
2018-12-07T13:05:37.480Z,2.95
2018-12-07T13:08:12.014Z,0.98
2018-12-07T13:10:46.437Z,1.52
2018-12-07T13:13:20.925Z,0.95
2018-12-07T13:15:55.388Z,1.60
2018-12-07T13:18:29.917Z,7.72
2018-12-07T13:21:04.546Z,4.20
2018-12-07T13:23:38.923Z,1.70
2018-12-07T13:26:13.265Z,1.70
2018-12-07T13:28:47.629Z,1.95
2018-12-07T13:31:22.124Z,11.25
2018-12-07T13:33:56.588Z,82.45
2018-12-07T13:36:30.934Z,11.48
2018-12-07T13:39:07.828Z,5.70
2018-12-07T13:41:42.366Z,7.85
2018-12-07T13:44:16.850Z,6.30
2018-12-07T13:46:51.415Z,2.95
2018-12-07T13:49:26.135Z,2.98
2018-12-07T13:52:00.688Z,2.65
2018-12-07T13:54:35.255Z,4.17
2018-12-07T13:58:34.333Z,2.05
2018-12-07T14:01:08.873Z,2.25
2018-12-07T14:03:43.735Z,1.72
2018-12-07T14:06:18.418Z,1.62
2018-12-07T14:08:53.275Z,1.12
2018-12-07T14:11:27.805Z,0.75
2018-12-07T14:14:02.438Z,1.10
2018-12-07T14:16:37.137Z,1.32
2018-12-07T14:19:11.606Z,1.00
2018-12-07T14:21:46.323Z,1.20
2018-12-07T14:24:20.845Z,1.32
2018-12-07T14:26:59.560Z,1.55
2018-12-07T14:29:31.621Z,1.45
2018-12-07T14:32:06.447Z,2.55
2018-12-07T14:34:41.223Z,3.55
2018-12-07T14:37:16.047Z,5.67
2018-12-07T14:39:50.722Z,8.00
2018-12-07T14:42:25.387Z,7.80
2018-12-07T14:44:59.841Z,5.85
2018-12-07T14:47:34.513Z,9.33
2018-12-07T14:50:09.151Z,16.27
2018-12-07T14:52:43.666Z,22.13
2018-12-07T14:55:18.453Z,6.67
2018-12-07T14:57:53.192Z,12.25
2018-12-07T15:00:28.083Z,5.20
2018-12-07T15:03:03.079Z,20.90
2018-12-07T15:05:37.727Z,9.43
2018-12-07T15:08:12.174Z,6.55
2018-12-07T15:10:47.100Z,7.08
2018-12-07T15:13:21.787Z,11.88
2018-12-07T15:15:56.432Z,23.12
2018-12-07T15:18:31.038Z,8.80
2018-12-07T15:21:05.893Z,37.13
2018-12-07T15:23:40.576Z,8.68
2018-12-07T15:26:15.292Z,14.13
2018-12-07T15:28:49.861Z,11.28
2018-12-07T15:31:24.575Z,30.70
2018-12-07T15:33:59.079Z,11.25
2018-12-07T15:36:33.617Z,6.75
2018-12-07T15:39:09.225Z,9.00
2018-12-07T15:41:43.730Z,5.08
2018-12-07T15:44:18.412Z,8.20
2018-12-07T15:46:53.313Z,6.47
2018-12-07T15:49:28.077Z,10.72
2018-12-07T15:52:02.577Z,7.47
2018-12-07T15:54:36.919Z,8.90
2018-12-07T15:57:11.649Z,4.37
2018-12-07T15:59:46.360Z,4.50
2018-12-07T16:02:20.832Z,2.40
2018-12-07T16:04:55.649Z,2.42
2018-12-07T16:07:30.185Z,8.00
2018-12-07T16:10:05.797Z,2.87
2018-12-07T16:12:40.729Z,9.10
2018-12-07T16:15:16.496Z,9.83
2018-12-07T16:17:51.039Z,6.03
2018-12-07T16:20:25.571Z,3.90
2018-12-07T16:23:00.062Z,5.05
2018-12-07T16:25:34.501Z,22.95
2018-12-07T16:28:09.066Z,26.02
2018-12-07T16:30:43.592Z,47.85
2018-12-07T16:33:18.079Z,55.30
2018-12-07T16:35:52.714Z,59.93
2018-12-07T16:38:27.864Z,49.10
2018-12-07T16:41:02.548Z,42.62
2018-12-07T16:43:37.291Z,26.60
2018-12-07T16:46:12.194Z,26.95
2018-12-07T16:48:46.944Z,23.18
2018-12-07T16:51:21.362Z,17.40
2018-12-07T16:53:55.957Z,9.90
2018-12-07T16:56:30.313Z,9.88
2018-12-07T16:59:04.805Z,9.60
2018-12-07T17:01:39.196Z,17.10
2018-12-07T17:04:14.120Z,22.00
2018-12-07T17:06:48.899Z,23.12
2018-12-07T17:09:23.396Z,18.65
2018-12-07T17:11:57.894Z,16.40
2018-12-07T17:14:32.734Z,11.85
2018-12-07T17:17:07.335Z,6.60
2018-12-07T17:19:41.873Z,5.78
2018-12-07T17:22:16.642Z,6.33
2018-12-07T17:24:51.245Z,8.35
2018-12-07T17:27:26.088Z,9.23
2018-12-07T17:30:00.498Z,14.35
2018-12-07T17:32:35.017Z,17.73
2018-12-07T17:35:09.505Z,15.32
2018-12-07T17:37:44.273Z,19.10
2018-12-07T17:40:19.083Z,30.70
2018-12-07T17:42:53.969Z,27.65
2018-12-07T17:45:28.993Z,19.77
2018-12-07T17:48:03.913Z,18.87
2018-12-07T17:50:38.550Z,20.02
2018-12-07T17:53:13.144Z,20.48
2018-12-07T17:55:47.947Z,18.73
2018-12-07T17:58:22.619Z,17.55
2018-12-07T18:00:57.245Z,30.30
2018-12-07T18:03:31.948Z,19.82
2018-12-07T18:06:06.688Z,16.95
2018-12-07T18:08:41.292Z,15.78
2018-12-07T18:11:15.881Z,17.30
2018-12-07T18:13:50.653Z,26.62
2018-12-07T18:16:25.360Z,22.60
2018-12-07T18:18:59.900Z,20.37
2018-12-07T18:21:34.628Z,15.23
2018-12-07T18:24:09.196Z,17.95
2018-12-07T18:26:43.898Z,21.40
2018-12-07T18:29:18.421Z,29.67
2018-12-07T18:31:53.096Z,22.35
2018-12-07T18:34:27.757Z,20.55
2018-12-07T18:37:02.505Z,19.35
2018-12-07T18:39:38.106Z,29.37
2018-12-07T18:42:12.970Z,12.78
2018-12-07T18:44:47.516Z,12.13
2018-12-07T18:47:22.491Z,15.90
2018-12-07T18:49:58.375Z,19.95
2018-12-07T18:52:33.003Z,24.65
2018-12-07T18:55:09.289Z,14.70
2018-12-07T18:57:44.039Z,16.87
2018-12-07T19:00:25.744Z,9.13
2018-12-07T19:03:00.405Z,7.40
2018-12-07T19:05:35.052Z,6.10
2018-12-07T19:08:09.924Z,7.72
2018-12-07T19:10:44.660Z,6.00
2018-12-07T19:13:19.295Z,5.70
2018-12-07T19:15:53.964Z,6.30
2018-12-07T19:18:28.514Z,6.60
2018-12-07T19:21:03.409Z,8.13
2018-12-07T19:23:38.395Z,7.67
2018-12-07T19:26:12.805Z,13.03
2018-12-07T19:28:47.559Z,13.05
2018-12-07T19:31:22.267Z,10.55
2018-12-07T19:33:57.111Z,9.23
2018-12-07T19:36:32.049Z,7.15
2018-12-07T19:39:08.799Z,8.80
2018-12-07T19:41:43.219Z,9.20
2018-12-07T19:44:17.681Z,13.20
2018-12-07T19:46:52.277Z,9.83
2018-12-07T19:49:27.275Z,9.60
2018-12-07T19:52:03.010Z,7.20
2018-12-07T19:54:37.690Z,7.12
2018-12-07T19:57:12.374Z,6.65
2018-12-07T19:59:47.996Z,11.88
2018-12-07T20:02:22.923Z,6.90
2018-12-07T20:04:57.763Z,6.05
2018-12-07T20:07:32.718Z,6.90
2018-12-07T20:10:08.356Z,9.55
2018-12-07T20:12:43.491Z,6.28
2018-12-07T20:15:18.221Z,5.83
2018-12-07T20:17:54.843Z,4.17
2018-12-07T20:20:29.921Z,3.62
2018-12-07T20:23:04.731Z,4.45
2018-12-07T20:25:39.404Z,5.42
2018-12-07T20:28:14.444Z,1.80
2018-12-07T20:30:49.236Z,2.10
2018-12-07T20:33:24.288Z,2.00
2018-12-07T20:35:58.842Z,2.87
2018-12-07T20:38:33.440Z,1.10
2018-12-07T20:41:07.910Z,1.25
2018-12-07T20:43:42.589Z,3.47
2018-12-07T20:46:17.695Z,5.05
2018-12-07T20:48:52.832Z,11.30
2018-12-07T20:51:27.881Z,11.78
2018-12-07T20:54:02.375Z,6.67
2018-12-07T20:56:37.073Z,3.12
2018-12-07T20:59:13.079Z,2.50
2018-12-07T21:01:51.759Z,2.50
2018-12-07T21:04:35.427Z,3.45
2018-12-07T21:07:38.475Z,6.92
2018-12-07T21:10:58.806Z,5.47
2018-12-07T21:14:48.651Z,21.52
2018-12-07T21:17:28.238Z,7.35
2018-12-07T21:20:11.394Z,3.35
2018-12-07T21:22:46.259Z,3.08
2018-12-07T21:25:21.747Z,1.52
2018-12-07T21:27:56.503Z,1.82
2018-12-07T21:30:50.151Z,1.42
2018-12-07T21:34:38.564Z,0.75
2018-12-07T21:37:13.597Z,0.80
2018-12-07T21:39:55.811Z,0.82
2018-12-07T21:42:30.982Z,0.50
2018-12-07T21:45:06.149Z,1.30
2018-12-07T21:48:00.995Z,3.12
2018-12-07T21:50:36.871Z,8.20
2018-12-07T21:53:12.535Z,19.00
2018-12-07T21:55:47.728Z,17.92
2018-12-07T21:58:23.575Z,8.48
2018-12-07T22:01:01.513Z,4.37
2018-12-07T22:03:37.954Z,1.25
2018-12-07T22:06:14.056Z,1.00
2018-12-07T22:08:49.711Z,1.90
2018-12-07T22:11:24.443Z,0.80
2018-12-07T22:14:00.973Z,1.17
2018-12-07T22:16:35.584Z,2.00
2018-12-07T22:19:11.500Z,0.80
2018-12-07T22:21:47.742Z,1.87
2018-12-07T22:24:22.646Z,2.72
2018-12-07T22:26:58.134Z,5.47
2018-12-07T22:29:33.197Z,1.02
2018-12-07T22:32:09.099Z,1.82
2018-12-07T22:34:43.563Z,0.70
2018-12-07T22:37:18.432Z,1.25
2018-12-07T22:39:53.370Z,1.20
2018-12-07T22:42:28.400Z,1.25
2018-12-07T22:45:02.984Z,0.80
2018-12-07T22:47:37.777Z,1.10
2018-12-07T22:50:13.257Z,8.68
2018-12-07T22:52:49.683Z,5.75
2018-12-07T22:55:24.296Z,0.90
2018-12-07T22:57:58.880Z,2.87
2018-12-07T23:00:33.947Z,3.20
2018-12-07T23:03:08.645Z,2.65
2018-12-07T23:05:43.386Z,1.70
2018-12-07T23:08:18.167Z,2.45
2018-12-07T23:10:52.847Z,2.58
2018-12-07T23:13:27.623Z,6.22
2018-12-07T23:16:02.321Z,4.10
2018-12-07T23:18:37.681Z,4.85
2018-12-07T23:21:13.174Z,5.33
2018-12-07T23:23:49.342Z,3.15
2018-12-07T23:26:24.631Z,5.60
2018-12-07T23:28:59.347Z,2.80
2018-12-07T23:31:36.837Z,2.60
2018-12-07T23:34:11.977Z,2.90
2018-12-07T23:36:46.976Z,0.70
2018-12-07T23:39:25.268Z,2.30
2018-12-07T23:42:00.009Z,2.47
2018-12-07T23:44:34.572Z,10.20
2018-12-07T23:47:09.148Z,9.05
2018-12-07T23:49:43.687Z,10.10
2018-12-07T23:52:18.215Z,10.55
2018-12-07T23:54:52.560Z,4.08
2018-12-07T23:57:28.531Z,4.75
